Time;durP1;ratioP1;P1;durP2;ratioP2;P2;SDS_P1;SDS_P2;PMS_P1;PMS_P2;Temp;Humidity;BMP_temperature;BMP_pressure;BME280_temperature;BME280_humidity;BME280_pressure;Samples;Min_cycle;Max_cycle;Signal;HPM_P1;HPM_P2
2022/01/28 00:00:13;;;;;;;343.20;85.67;;;;;;;;;;4953428;28;20422;-79
2022/01/28 00:03:06;;;;;;;278.73;82.73;;;;;;;;;;4970618;28;20437;-79
2022/01/28 00:05:27;;;;;;;276.90;79.80;;;;;;;;;;4952134;28;20496;-79
2022/01/28 00:07:54;;;;;;;361.10;90.00;;;;;;;;;;4953956;28;20430;-79
2022/01/28 00:10:21;;;;;;;280.37;80.17;;;;;;;;;;4953225;28;20434;-79
2022/01/28 00:15:28;;;;;;;387.90;83.33;;;;;;;;;;4953613;28;20453;-79
2022/01/28 00:39:39;;;;;;;221.80;68.67;;;;;;;;;;4954729;28;21286;-78
2022/01/28 00:42:06;;;;;;;377.90;84.47;;;;;;;;;;4951644;28;20426;-78
2022/01/28 00:44:32;;;;;;;437.63;88.23;;;;;;;;;;4950866;28;20421;-78
2022/01/28 00:46:58;;;;;;;352.27;83.33;;;;;;;;;;4954222;28;21291;-78
2022/01/28 00:49:24;;;;;;;329.13;75.83;;;;;;;;;;4952705;28;20426;-78
2022/01/28 00:51:50;;;;;;;292.83;76.47;;;;;;;;;;4955363;28;21109;-78
2022/01/28 00:54:18;;;;;;;299.03;78.07;;;;;;;;;;4950018;28;20399;-78
2022/01/28 00:56:44;;;;;;;334.20;79.73;;;;;;;;;;4948226;28;20432;-78
2022/01/28 00:59:10;;;;;;;336.73;81.43;;;;;;;;;;4953888;28;20465;-78
2022/01/28 01:01:37;;;;;;;254.27;73.47;;;;;;;;;;4969839;28;20422;-78
2022/01/28 01:04:03;;;;;;;444.83;87.43;;;;;;;;;;4951747;28;21239;-78
2022/01/28 01:06:29;;;;;;;245.73;69.83;;;;;;;;;;4952820;28;20493;-78
2022/01/28 01:08:56;;;;;;;238.87;69.60;;;;;;;;;;4965649;28;20427;-78
2022/01/28 01:11:23;;;;;;;345.30;80.60;;;;;;;;;;4950428;28;20426;-78
2022/01/28 01:13:50;;;;;;;265.40;74.20;;;;;;;;;;4953808;28;20901;-78
2022/01/28 01:16:22;;;;;;;247.13;73.37;;;;;;;;;;4953460;28;20512;-78
2022/01/28 01:18:53;;;;;;;246.30;68.77;;;;;;;;;;4962638;28;20528;-78
2022/01/28 01:21:26;;;;;;;329.13;74.07;;;;;;;;;;4951710;28;20998;-78
2022/01/28 01:23:55;;;;;;;256.90;72.03;;;;;;;;;;4953476;28;20445;-78
2022/01/28 01:26:30;;;;;;;304.27;75.30;;;;;;;;;;4954513;28;21277;-78
2022/01/28 01:28:56;;;;;;;330.13;77.47;;;;;;;;;;4953589;28;20433;-78
2022/01/28 01:31:22;;;;;;;312.67;77.53;;;;;;;;;;4949827;28;20549;-78
2022/01/28 01:36:17;;;;;;;171.27;56.73;;;;;;;;;;4954031;28;20456;-78
2022/01/28 01:38:44;;;;;;;201.73;58.63;;;;;;;;;;4952729;28;21196;-78
2022/01/28 01:41:16;;;;;;;205.77;60.77;;;;;;;;;;4953624;28;20422;-78
2022/01/28 01:44:09;;;;;;;158.47;54.80;;;;;;;;;;4951430;28;20542;-78
2022/01/28 01:52:05;;;;;;;171.63;58.50;;;;;;;;;;4954637;28;21454;-78
2022/01/28 01:54:39;;;;;;;194.93;58.73;;;;;;;;;;4968136;28;21232;-78
2022/01/28 01:57:06;;;;;;;182.93;56.87;;;;;;;;;;4965229;28;20950;-78
2022/01/28 01:59:33;;;;;;;268.33;66.17;;;;;;;;;;4952166;28;20437;-79
2022/01/28 02:01:59;;;;;;;204.43;61.57;;;;;;;;;;4951986;28;20541;-79
2022/01/28 02:04:25;;;;;;;278.67;65.57;;;;;;;;;;4952662;28;20418;-79
2022/01/28 02:06:53;;;;;;;203.73;62.20;;;;;;;;;;4967200;28;20459;-79
2022/01/28 02:09:19;;;;;;;252.13;67.47;;;;;;;;;;4950209;28;20429;-79
2022/01/28 02:11:45;;;;;;;226.50;61.30;;;;;;;;;;4955928;28;20418;-79
2022/01/28 02:14:11;;;;;;;222.60;61.33;;;;;;;;;;4954666;28;21164;-79
2022/01/28 02:16:38;;;;;;;276.37;64.83;;;;;;;;;;4957840;28;20540;-79
2022/01/28 02:19:04;;;;;;;281.73;67.70;;;;;;;;;;4957087;28;20505;-79
2022/01/28 02:21:39;;;;;;;273.03;65.17;;;;;;;;;;4952385;28;20500;-78
2022/01/28 02:24:06;;;;;;;186.40;55.97;;;;;;;;;;4956455;28;20413;-79
2022/01/28 02:26:35;;;;;;;273.40;63.83;;;;;;;;;;4953227;28;20429;-79
2022/01/28 02:29:08;;;;;;;219.77;58.73;;;;;;;;;;4956871;28;20472;-79
2022/01/28 02:31:34;;;;;;;221.03;56.37;;;;;;;;;;4953468;28;20466;-79
2022/01/28 02:34:00;;;;;;;163.37;52.03;;;;;;;;;;4954275;28;21124;-79
2022/01/28 02:36:27;;;;;;;130.17;46.37;;;;;;;;;;4953374;28;20427;-79
2022/01/28 02:38:53;;;;;;;169.37;51.93;;;;;;;;;;4953575;28;20485;-79
2022/01/28 02:41:20;;;;;;;157.43;50.13;;;;;;;;;;4956745;28;20414;-79
2022/01/28 02:47:01;;;;;;;126.57;45.60;;;;;;;;;;4912732;29;21229;-79
2022/01/28 02:49:33;;;;;;;130.63;47.47;;;;;;;;;;4897043;29;20447;-79
2022/01/28 02:52:01;;;;;;;172.83;53.77;;;;;;;;;;4929772;28;20434;-79
2022/01/28 02:54:27;;;;;;;151.87;48.77;;;;;;;;;;4955715;28;20414;-79
2022/01/28 02:56:59;;;;;;;198.47;56.17;;;;;;;;;;4955119;28;20472;-79
2022/01/28 02:59:26;;;;;;;258.80;57.93;;;;;;;;;;4954861;28;20446;-79
2022/01/28 03:01:52;;;;;;;133.30;49.17;;;;;;;;;;4952693;28;21195;-79
2022/01/28 03:05:23;;;;;;;141.03;50.63;;;;;;;;;;4954419;28;20418;-79
2022/01/28 03:07:07;;;;;;;243.33;59.67;;;;;;;;;;4956361;28;20422;-78
2022/01/28 03:09:50;;;;;;;165.00;54.30;;;;;;;;;;4954879;28;20576;-79
2022/01/28 03:12:19;;;;;;;232.73;57.30;;;;;;;;;;4954995;28;20449;-79
2022/01/28 03:15:06;;;;;;;152.23;52.77;;;;;;;;;;4952762;28;20529;-79
2022/01/28 03:20:17;;;;;;;224.33;59.57;;;;;;;;;;4956290;28;20433;-79
2022/01/28 03:22:43;;;;;;;161.67;55.57;;;;;;;;;;4952113;28;20430;-77
2022/01/28 03:25:09;;;;;;;143.10;51.50;;;;;;;;;;4952280;28;20422;-79
2022/01/28 03:27:59;;;;;;;200.63;56.00;;;;;;;;;;4954759;28;20479;-77
2022/01/28 03:30:22;;;;;;;145.93;52.47;;;;;;;;;;4955255;28;20508;-77
2022/01/28 03:32:48;;;;;;;148.37;49.93;;;;;;;;;;4951551;28;21078;-77
2022/01/28 03:35:16;;;;;;;138.13;50.80;;;;;;;;;;4954343;28;20461;-78
2022/01/28 03:37:42;;;;;;;128.37;49.20;;;;;;;;;;4951701;28;20422;-78
2022/01/28 03:40:09;;;;;;;207.60;56.20;;;;;;;;;;4953739;28;20417;-78
2022/01/28 03:42:36;;;;;;;238.83;59.97;;;;;;;;;;4954933;28;20424;-78
2022/01/28 03:45:02;;;;;;;234.97;60.87;;;;;;;;;;4955564;28;20454;-78
2022/01/28 03:47:28;;;;;;;248.43;58.73;;;;;;;;;;4952908;28;20422;-78
2022/01/28 03:49:55;;;;;;;249.60;52.60;;;;;;;;;;4952063;28;20441;-78
2022/01/28 03:52:21;;;;;;;142.70;49.23;;;;;;;;;;4950480;28;22584;-78
2022/01/28 03:54:47;;;;;;;135.23;46.03;;;;;;;;;;4955745;28;20410;-78
2022/01/28 03:57:13;;;;;;;142.60;47.57;;;;;;;;;;4954379;28;20414;-78
2022/01/28 03:59:39;;;;;;;160.00;45.73;;;;;;;;;;4955534;28;20442;-78
2022/01/28 04:02:06;;;;;;;148.57;47.73;;;;;;;;;;4953003;28;20426;-78
2022/01/28 04:12:40;;;;;;;219.03;56.10;;;;;;;;;;4953864;28;20449;-78
2022/01/28 04:17:33;;;;;;;197.77;51.80;;;;;;;;;;4952815;28;21117;-78
2022/01/28 04:19:59;;;;;;;192.47;53.33;;;;;;;;;;4953169;28;20437;-78
2022/01/28 04:22:25;;;;;;;132.03;48.23;;;;;;;;;;4954908;28;20613;-78
2022/01/28 04:24:51;;;;;;;175.47;53.30;;;;;;;;;;4952332;28;20432;-78
2022/01/28 04:27:18;;;;;;;264.10;57.83;;;;;;;;;;4951418;28;20461;-78
2022/01/28 04:29:44;;;;;;;213.70;51.37;;;;;;;;;;4967518;28;20430;-78
2022/01/28 04:32:11;;;;;;;179.00;51.13;;;;;;;;;;4953963;28;20445;-78
2022/01/28 04:34:37;;;;;;;491.93;70.57;;;;;;;;;;4951103;28;20689;-78
2022/01/28 04:37:18;;;;;;;273.13;57.13;;;;;;;;;;4949775;28;21096;-78
2022/01/28 04:39:54;;;;;;;555.20;73.90;;;;;;;;;;4952709;28;21092;-78
2022/01/28 04:47:46;;;;;;;124.83;47.87;;;;;;;;;;4953104;28;20430;-78
2022/01/28 04:50:39;;;;;;;135.73;49.70;;;;;;;;;;4948625;28;20891;-78
2022/01/28 04:54:03;;;;;;;161.50;49.53;;;;;;;;;;4953701;28;20450;-78
2022/01/28 05:26:53;;;;;;;127.33;45.20;;;;;;;;;;4953805;28;20435;-79
2022/01/28 05:29:19;;;;;;;89.30;41.60;;;;;;;;;;4967699;28;21316;-79
2022/01/28 05:31:46;;;;;;;251.07;53.53;;;;;;;;;;4945790;28;20540;-79
2022/01/28 05:34:12;;;;;;;188.20;51.73;;;;;;;;;;4965166;28;21430;-80
2022/01/28 05:36:39;;;;;;;90.00;41.37;;;;;;;;;;4952003;28;20422;-79
2022/01/28 05:39:05;;;;;;;98.97;42.30;;;;;;;;;;4949856;28;20430;-79
2022/01/28 05:41:32;;;;;;;225.33;54.93;;;;;;;;;;4948697;28;20428;-79
2022/01/28 05:44:00;;;;;;;129.37;45.47;;;;;;;;;;4949273;28;21135;-80
2022/01/28 05:46:28;;;;;;;302.60;65.20;;;;;;;;;;4951664;28;20437;-80
2022/01/28 05:48:55;;;;;;;128.17;48.30;;;;;;;;;;4958453;28;20448;-80
2022/01/28 05:51:21;;;;;;;228.03;60.77;;;;;;;;;;4958470;28;20461;-79
2022/01/28 05:53:47;;;;;;;237.10;57.00;;;;;;;;;;4956770;28;20454;-79
2022/01/28 05:56:14;;;;;;;223.27;60.47;;;;;;;;;;4957847;28;20532;-79
2022/01/28 05:58:40;;;;;;;185.60;55.57;;;;;;;;;;4953342;28;20432;-79
2022/01/28 06:01:06;;;;;;;174.77;58.47;;;;;;;;;;4953690;28;21265;-80
2022/01/28 06:03:32;;;;;;;332.67;68.90;;;;;;;;;;4954432;28;20483;-80
2022/01/28 06:05:58;;;;;;;254.30;63.47;;;;;;;;;;4956221;28;20434;-80
2022/01/28 06:08:24;;;;;;;400.20;75.30;;;;;;;;;;4969956;28;20422;-80
2022/01/28 06:10:50;;;;;;;323.73;67.93;;;;;;;;;;4952773;28;20521;-80
2022/01/28 06:13:16;;;;;;;147.97;53.63;;;;;;;;;;4954736;28;21322;-80
2022/01/28 06:15:43;;;;;;;170.83;50.87;;;;;;;;;;4956845;28;20418;-80
2022/01/28 06:18:10;;;;;;;208.30;56.67;;;;;;;;;;4953283;28;20529;-80
2022/01/28 06:20:36;;;;;;;118.50;49.47;;;;;;;;;;4949864;28;20422;-80
2022/01/28 06:23:02;;;;;;;230.97;61.57;;;;;;;;;;4952954;28;20477;-79
2022/01/28 06:25:29;;;;;;;230.27;59.60;;;;;;;;;;4953208;28;20426;-80
2022/01/28 06:27:55;;;;;;;143.57;53.23;;;;;;;;;;4952757;28;20456;-81
2022/01/28 06:30:22;;;;;;;251.40;60.87;;;;;;;;;;4965776;28;20426;-81
2022/01/28 06:32:48;;;;;;;219.10;59.17;;;;;;;;;;4952727;28;20446;-80
2022/01/28 06:35:14;;;;;;;149.57;54.53;;;;;;;;;;4968330;28;20422;-80
2022/01/28 06:37:41;;;;;;;198.50;59.50;;;;;;;;;;4948770;28;20694;-80
2022/01/28 06:40:09;;;;;;;161.43;53.50;;;;;;;;;;4952199;28;20410;-80
2022/01/28 06:42:35;;;;;;;236.73;60.43;;;;;;;;;;4950626;28;21158;-80
2022/01/28 06:45:01;;;;;;;247.73;57.90;;;;;;;;;;4952361;28;20430;-79
2022/01/28 06:47:27;;;;;;;128.13;49.57;;;;;;;;;;4950986;28;20430;-80
2022/01/28 06:49:54;;;;;;;168.43;50.53;;;;;;;;;;4954333;28;20441;-79
2022/01/28 06:52:20;;;;;;;185.50;53.40;;;;;;;;;;4953273;28;20431;-79
2022/01/28 06:54:46;;;;;;;146.43;48.83;;;;;;;;;;4951410;28;20426;-80
2022/01/28 06:57:12;;;;;;;95.17;40.87;;;;;;;;;;4952468;28;20615;-80
2022/01/28 06:59:38;;;;;;;121.47;44.63;;;;;;;;;;4954842;28;20850;-79
2022/01/28 07:02:08;;;;;;;204.63;57.77;;;;;;;;;;4952537;28;20418;-80
2022/01/28 07:04:34;;;;;;;267.43;60.83;;;;;;;;;;4950562;28;20476;-79
2022/01/28 07:07:00;;;;;;;118.30;44.60;;;;;;;;;;4953313;28;21222;-79
2022/01/28 07:09:27;;;;;;;222.70;54.87;;;;;;;;;;4952590;28;20430;-79
2022/01/28 07:11:53;;;;;;;132.90;43.83;;;;;;;;;;4947538;28;20438;-79
2022/01/28 07:14:19;;;;;;;157.77;46.17;;;;;;;;;;4950697;28;20445;-79
2022/01/28 07:16:45;;;;;;;139.70;45.20;;;;;;;;;;4952804;28;20476;-80
2022/01/28 07:19:11;;;;;;;170.87;51.63;;;;;;;;;;4950421;28;20508;-80
2022/01/28 07:21:37;;;;;;;132.50;47.37;;;;;;;;;;4951121;28;20418;-80
2022/01/28 07:24:04;;;;;;;125.87;46.60;;;;;;;;;;4968427;28;20430;-80
2022/01/28 07:26:30;;;;;;;154.80;47.37;;;;;;;;;;4966986;28;20587;-80
2022/01/28 07:28:56;;;;;;;148.03;48.90;;;;;;;;;;4950681;28;22010;-80
2022/01/28 07:31:22;;;;;;;124.97;47.37;;;;;;;;;;4951597;28;20450;-80
2022/01/28 07:33:49;;;;;;;165.57;49.17;;;;;;;;;;4952487;28;21073;-81
2022/01/28 07:36:15;;;;;;;136.63;48.03;;;;;;;;;;4952010;28;20525;-81
2022/01/28 07:38:41;;;;;;;168.63;52.97;;;;;;;;;;4952594;28;21052;-81
2022/01/28 07:41:07;;;;;;;166.10;51.13;;;;;;;;;;4951500;28;20422;-81
2022/01/28 07:43:37;;;;;;;198.47;57.87;;;;;;;;;;4951341;28;20422;-81
2022/01/28 07:46:04;;;;;;;209.10;51.90;;;;;;;;;;4957423;28;21243;-82
2022/01/28 07:48:31;;;;;;;131.23;48.50;;;;;;;;;;4954842;28;21200;-82
2022/01/28 07:50:58;;;;;;;139.63;49.30;;;;;;;;;;4957873;28;20509;-82
2022/01/28 07:53:25;;;;;;;135.40;47.77;;;;;;;;;;4955386;28;20458;-80
2022/01/28 07:55:52;;;;;;;244.23;58.30;;;;;;;;;;4954016;28;20461;-81
2022/01/28 07:58:22;;;;;;;213.37;58.20;;;;;;;;;;4954578;28;20500;-82
2022/01/28 08:00:52;;;;;;;168.67;54.90;;;;;;;;;;4973919;28;20422;-82
2022/01/28 08:03:21;;;;;;;201.77;56.63;;;;;;;;;;4971420;28;20438;-82
2022/01/28 08:05:49;;;;;;;127.07;49.47;;;;;;;;;;4954947;28;20445;-84
2022/01/28 08:08:20;;;;;;;134.17;48.87;;;;;;;;;;4950836;28;20977;-81
2022/01/28 08:10:47;;;;;;;117.67;45.30;;;;;;;;;;4955065;28;20429;-82
2022/01/28 08:13:15;;;;;;;117.80;46.80;;;;;;;;;;4958041;28;20453;-82
2022/01/28 08:15:47;;;;;;;124.50;46.30;;;;;;;;;;4958195;28;20425;-81
2022/01/28 08:18:14;;;;;;;109.83;45.83;;;;;;;;;;4956546;28;20501;-81
2022/01/28 08:20:43;;;;;;;121.20;45.67;;;;;;;;;;4955254;28;20430;-79
2022/01/28 08:23:10;;;;;;;132.07;47.90;;;;;;;;;;4953438;28;20445;-79
2022/01/28 08:25:37;;;;;;;159.70;53.30;;;;;;;;;;4971038;28;20922;-81
2022/01/28 08:28:07;;;;;;;122.37;47.70;;;;;;;;;;4955885;28;20552;-80
2022/01/28 08:30:37;;;;;;;144.00;51.07;;;;;;;;;;4955071;28;20449;-80
2022/01/28 08:33:05;;;;;;;130.13;47.83;;;;;;;;;;4952814;28;20478;-80
2022/01/28 08:35:41;;;;;;;130.07;47.37;;;;;;;;;;4958111;28;20428;-81
2022/01/28 08:38:15;;;;;;;130.40;49.93;;;;;;;;;;4956914;28;20450;-80
2022/01/28 08:40:42;;;;;;;125.67;48.87;;;;;;;;;;4954498;28;20437;-81
2022/01/28 08:43:14;;;;;;;129.57;48.67;;;;;;;;;;4954545;28;20420;-79
2022/01/28 08:45:40;;;;;;;139.60;50.97;;;;;;;;;;4953480;28;21027;-80
2022/01/28 08:48:07;;;;;;;116.03;47.37;;;;;;;;;;4957268;28;20537;-80
2022/01/28 08:50:44;;;;;;;128.17;48.17;;;;;;;;;;4957198;28;20426;-80
2022/01/28 08:53:11;;;;;;;116.43;45.70;;;;;;;;;;4955032;28;20453;-81
2022/01/28 08:55:42;;;;;;;120.63;47.33;;;;;;;;;;4952685;28;20793;-81
2022/01/28 08:58:13;;;;;;;140.87;49.00;;;;;;;;;;4954902;28;20441;-81
2022/01/28 09:00:42;;;;;;;120.87;45.03;;;;;;;;;;4955520;28;20943;-81
2022/01/28 09:03:11;;;;;;;119.03;46.00;;;;;;;;;;4956742;28;20441;-81
2022/01/28 09:05:47;;;;;;;106.17;43.37;;;;;;;;;;4939958;28;20465;-81
2022/01/28 09:08:24;;;;;;;109.77;42.67;;;;;;;;;;4956509;28;20418;-81
2022/01/28 09:11:31;;;;;;;121.43;45.73;;;;;;;;;;4954594;28;20427;-81
2022/01/28 09:13:58;;;;;;;123.40;45.87;;;;;;;;;;4955853;28;20871;-81
2022/01/28 09:16:36;;;;;;;150.27;51.53;;;;;;;;;;4969163;28;20426;-80
2022/01/28 09:19:02;;;;;;;123.07;47.13;;;;;;;;;;4939215;28;20426;-81
2022/01/28 09:21:29;;;;;;;147.27;47.93;;;;;;;;;;4956787;28;20422;-81
2022/01/28 09:23:59;;;;;;;118.67;45.17;;;;;;;;;;4956847;28;20437;-81
2022/01/28 09:26:26;;;;;;;124.90;43.57;;;;;;;;;;4955206;28;20410;-81
2022/01/28 09:28:56;;;;;;;128.97;45.77;;;;;;;;;;4958023;28;21174;-81
2022/01/28 09:31:22;;;;;;;121.23;45.33;;;;;;;;;;4957312;28;22116;-80
2022/01/28 09:33:48;;;;;;;121.47;45.20;;;;;;;;;;4971418;28;20453;-80
2022/01/28 09:36:15;;;;;;;140.13;47.53;;;;;;;;;;4955000;28;21357;-80
2022/01/28 09:38:41;;;;;;;139.73;47.80;;;;;;;;;;4955583;28;21221;-80
2022/01/28 09:41:08;;;;;;;136.73;50.17;;;;;;;;;;4956222;28;20568;-79
2022/01/28 09:43:35;;;;;;;138.20;49.43;;;;;;;;;;4955235;28;21086;-78
2022/01/28 09:46:05;;;;;;;141.30;49.60;;;;;;;;;;4954826;28;21141;-80
2022/01/28 09:48:32;;;;;;;134.80;48.83;;;;;;;;;;4954467;28;20528;-79
2022/01/28 09:50:59;;;;;;;125.33;47.87;;;;;;;;;;4955189;28;20422;-79
2022/01/28 09:53:25;;;;;;;135.60;47.43;;;;;;;;;;4952742;28;20446;-79
2022/01/28 09:55:52;;;;;;;149.67;52.20;;;;;;;;;;4955906;28;21234;-79
2022/01/28 09:58:18;;;;;;;173.33;53.67;;;;;;;;;;4951062;28;20537;-79
2022/01/28 10:00:44;;;;;;;152.30;51.50;;;;;;;;;;4953258;28;20438;-79
2022/01/28 10:03:12;;;;;;;168.20;53.53;;;;;;;;;;4956202;28;20430;-79
2022/01/28 10:05:40;;;;;;;155.00;51.63;;;;;;;;;;4970023;28;20414;-79
2022/01/28 10:08:08;;;;;;;161.10;54.70;;;;;;;;;;4952928;28;21356;-79
2022/01/28 10:10:42;;;;;;;153.13;49.47;;;;;;;;;;4967924;28;20434;-79
2022/01/28 10:13:11;;;;;;;142.27;52.13;;;;;;;;;;4960395;28;20458;-79
2022/01/28 10:15:37;;;;;;;158.30;51.83;;;;;;;;;;4954121;28;20438;-79
2022/01/28 10:18:03;;;;;;;182.30;56.00;;;;;;;;;;4957345;28;20425;-80
2022/01/28 10:20:29;;;;;;;152.33;53.87;;;;;;;;;;4955351;28;20485;-79
2022/01/28 10:22:57;;;;;;;144.27;52.10;;;;;;;;;;4954970;28;20524;-79
2022/01/28 10:25:25;;;;;;;156.20;52.10;;;;;;;;;;4956211;28;20995;-79
2022/01/28 10:27:59;;;;;;;140.90;49.87;;;;;;;;;;4953750;28;21153;-79
2022/01/28 10:30:25;;;;;;;138.47;50.43;;;;;;;;;;4970820;28;20417;-79
2022/01/28 10:33:10;;;;;;;128.53;53.43;;;;;;;;;;4953348;28;20449;-79
2022/01/28 10:35:36;;;;;;;133.57;51.50;;;;;;;;;;4952999;28;20434;-79
2022/01/28 10:38:04;;;;;;;129.53;50.70;;;;;;;;;;4954365;28;21179;-79
2022/01/28 10:40:30;;;;;;;109.27;47.53;;;;;;;;;;4971468;28;20525;-79
2022/01/28 10:42:56;;;;;;;108.57;45.70;;;;;;;;;;4954319;28;20433;-79
2022/01/28 10:45:25;;;;;;;111.27;48.23;;;;;;;;;;4953743;28;20441;-79
2022/01/28 10:47:53;;;;;;;109.00;47.53;;;;;;;;;;4953792;28;20434;-79
2022/01/28 10:50:20;;;;;;;104.00;45.43;;;;;;;;;;4956169;28;20927;-78
2022/01/28 10:52:48;;;;;;;109.00;48.73;;;;;;;;;;4952061;28;20454;-79
2022/01/28 10:55:18;;;;;;;95.23;43.90;;;;;;;;;;4951660;28;20429;-80
2022/01/28 10:57:56;;;;;;;102.63;47.53;;;;;;;;;;4955399;28;20434;-79
2022/01/28 11:00:22;;;;;;;123.63;52.90;;;;;;;;;;4970099;28;21307;-79
2022/01/28 11:02:48;;;;;;;125.27;54.10;;;;;;;;;;4954023;28;20437;-79
2022/01/28 11:05:15;;;;;;;128.17;57.53;;;;;;;;;;4955121;28;20429;-79
2022/01/28 11:07:41;;;;;;;117.03;55.53;;;;;;;;;;4953898;28;21219;-79
2022/01/28 11:10:07;;;;;;;95.77;49.00;;;;;;;;;;4954699;28;20762;-78
2022/01/28 11:12:33;;;;;;;97.37;48.83;;;;;;;;;;4954523;28;20430;-81
2022/01/28 11:15:00;;;;;;;95.33;46.37;;;;;;;;;;4966999;28;20484;-79
2022/01/28 11:17:26;;;;;;;83.90;43.43;;;;;;;;;;4954025;28;20457;-79
2022/01/28 11:19:55;;;;;;;78.10;42.50;;;;;;;;;;4953564;28;20553;-79
2022/01/28 11:22:40;;;;;;;73.03;38.20;;;;;;;;;;4955216;28;20422;-80
2022/01/28 11:25:28;;;;;;;68.23;38.90;;;;;;;;;;4954966;28;21088;-80
2022/01/28 11:27:54;;;;;;;68.27;38.00;;;;;;;;;;4952489;28;20938;-79
2022/01/28 11:30:25;;;;;;;69.70;40.37;;;;;;;;;;4950930;28;20426;-79
2022/01/28 11:32:59;;;;;;;65.63;38.87;;;;;;;;;;4953599;28;21556;-80
2022/01/28 11:35:25;;;;;;;59.83;35.90;;;;;;;;;;4952255;28;21204;-79
2022/01/28 11:37:54;;;;;;;63.83;36.83;;;;;;;;;;4953322;28;20890;-79
2022/01/28 11:40:20;;;;;;;60.43;36.83;;;;;;;;;;4951541;28;20422;-79
2022/01/28 11:42:46;;;;;;;50.30;32.43;;;;;;;;;;4948487;28;20434;-79
2022/01/28 11:45:13;;;;;;;58.73;33.60;;;;;;;;;;4953206;28;20430;-79
2022/01/28 11:47:40;;;;;;;53.90;31.60;;;;;;;;;;4951144;28;20462;-79
2022/01/28 11:50:09;;;;;;;61.00;35.83;;;;;;;;;;4951075;28;21045;-79
2022/01/28 11:52:48;;;;;;;63.43;36.60;;;;;;;;;;4966838;28;22397;-80
2022/01/28 11:55:20;;;;;;;66.87;36.60;;;;;;;;;;4956301;28;20441;-79
2022/01/28 11:57:51;;;;;;;66.73;36.97;;;;;;;;;;4953138;28;20441;-79
2022/01/28 12:00:21;;;;;;;51.23;31.33;;;;;;;;;;4965145;28;20598;-79
2022/01/28 12:02:53;;;;;;;52.90;32.60;;;;;;;;;;4949945;28;20434;-79
2022/01/28 12:05:32;;;;;;;53.60;31.50;;;;;;;;;;4950200;28;21165;-81
2022/01/28 12:08:00;;;;;;;51.97;31.63;;;;;;;;;;4951209;28;20422;-79
2022/01/28 12:10:27;;;;;;;55.83;32.47;;;;;;;;;;4953145;28;21243;-79
2022/01/28 12:12:59;;;;;;;56.27;32.60;;;;;;;;;;4953280;28;20469;-79
2022/01/28 12:15:28;;;;;;;57.30;33.03;;;;;;;;;;4950654;28;20946;-79
2022/01/28 12:18:04;;;;;;;53.67;32.93;;;;;;;;;;4950388;28;20454;-80
2022/01/28 12:20:44;;;;;;;54.63;32.60;;;;;;;;;;4952280;28;21219;-80
2022/01/28 12:23:10;;;;;;;58.37;33.57;;;;;;;;;;4964932;28;21385;-80
2022/01/28 12:25:36;;;;;;;53.80;33.23;;;;;;;;;;4951191;28;21097;-80
2022/01/28 12:28:21;;;;;;;56.80;34.07;;;;;;;;;;4952697;28;20437;-80
2022/01/28 12:30:50;;;;;;;53.50;33.47;;;;;;;;;;4953161;28;20525;-80
2022/01/28 12:33:21;;;;;;;56.70;34.17;;;;;;;;;;4953678;28;20450;-80
2022/01/28 12:35:50;;;;;;;51.73;31.77;;;;;;;;;;4952201;28;21452;-80
2022/01/28 12:38:20;;;;;;;45.30;30.43;;;;;;;;;;4949035;28;20477;-80
2022/01/28 12:40:49;;;;;;;51.77;31.70;;;;;;;;;;4951716;28;20414;-80
2022/01/28 12:43:22;;;;;;;47.77;31.43;;;;;;;;;;4952887;28;20414;-80
2022/01/28 12:45:59;;;;;;;47.27;30.70;;;;;;;;;;4953179;28;20421;-80
2022/01/28 12:48:25;;;;;;;48.93;31.67;;;;;;;;;;4951336;28;20422;-80
2022/01/28 12:50:52;;;;;;;48.10;30.70;;;;;;;;;;4950784;28;20210;-80
2022/01/28 12:53:30;;;;;;;49.53;32.60;;;;;;;;;;4951410;28;20210;-80
2022/01/28 12:55:57;;;;;;;47.47;31.57;;;;;;;;;;4952137;28;20290;-81
2022/01/28 12:58:31;;;;;;;53.43;33.07;;;;;;;;;;4951468;28;20191;-80
2022/01/28 13:01:04;;;;;;;48.27;30.73;;;;;;;;;;4950155;28;20190;-81
2022/01/28 13:03:36;;;;;;;45.73;31.27;;;;;;;;;;4948814;28;20500;-81
2022/01/28 13:06:27;;;;;;;54.70;34.00;;;;;;;;;;4950725;28;20264;-81
2022/01/28 13:08:53;;;;;;;47.73;31.50;;;;;;;;;;4950730;28;20204;-81
2022/01/28 13:11:24;;;;;;;44.80;28.40;;;;;;;;;;4950552;28;20183;-81
2022/01/28 13:13:54;;;;;;;41.73;28.37;;;;;;;;;;4951205;28;20410;-81
2022/01/28 13:16:34;;;;;;;50.53;34.20;;;;;;;;;;4950459;28;20202;-80
2022/01/28 13:19:01;;;;;;;53.53;36.10;;;;;;;;;;4947351;28;20200;-81
2022/01/28 13:21:28;;;;;;;45.43;30.87;;;;;;;;;;4952431;28;20185;-80
2022/01/28 13:24:11;;;;;;;48.70;30.33;;;;;;;;;;4951463;28;20190;-80
2022/01/28 13:26:51;;;;;;;48.63;31.60;;;;;;;;;;4948538;28;20986;-81
2022/01/28 13:29:18;;;;;;;49.40;32.53;;;;;;;;;;4949523;28;20185;-80
2022/01/28 13:31:53;;;;;;;48.60;31.97;;;;;;;;;;4947119;28;20183;-81
2022/01/28 13:34:19;;;;;;;48.07;32.17;;;;;;;;;;4952418;28;20955;-81
2022/01/28 13:36:46;;;;;;;47.83;31.60;;;;;;;;;;4949729;28;20285;-81
2022/01/28 13:39:17;;;;;;;45.03;29.90;;;;;;;;;;4951816;28;20210;-82
2022/01/28 13:41:43;;;;;;;44.57;30.50;;;;;;;;;;4946830;28;20811;-81
2022/01/28 13:44:21;;;;;;;49.87;32.70;;;;;;;;;;4948973;28;20294;-82
2022/01/28 13:46:58;;;;;;;50.03;32.13;;;;;;;;;;4964118;28;20386;-80
2022/01/28 13:49:35;;;;;;;44.40;30.70;;;;;;;;;;4948356;28;20187;-81
2022/01/28 13:52:09;;;;;;;51.30;34.07;;;;;;;;;;4946717;28;20186;-81
2022/01/28 13:54:35;;;;;;;44.33;30.97;;;;;;;;;;4947692;28;20309;-82
2022/01/28 13:57:02;;;;;;;48.00;33.13;;;;;;;;;;4965112;28;20928;-82
2022/01/28 13:59:30;;;;;;;53.07;33.47;;;;;;;;;;4951423;28;21164;-82
2022/01/28 14:01:59;;;;;;;49.40;32.67;;;;;;;;;;4952795;28;20185;-81
2022/01/28 14:04:26;;;;;;;52.53;33.47;;;;;;;;;;4946656;28;20186;-81
2022/01/28 14:07:29;;;;;;;47.93;33.53;;;;;;;;;;4951269;28;20190;-82
2022/01/28 14:09:58;;;;;;;46.90;32.57;;;;;;;;;;4931673;28;20195;-80
2022/01/28 14:12:34;;;;;;;56.73;35.27;;;;;;;;;;4950965;28;20286;-81
2022/01/28 14:15:11;;;;;;;51.77;33.63;;;;;;;;;;4952540;28;20175;-80
2022/01/28 14:17:37;;;;;;;56.87;36.57;;;;;;;;;;4951604;28;20492;-80
2022/01/28 14:20:04;;;;;;;53.30;35.43;;;;;;;;;;4953976;28;20214;-80
2022/01/28 14:22:30;;;;;;;52.10;34.17;;;;;;;;;;4952440;28;20188;-80
2022/01/28 14:24:59;;;;;;;56.13;34.47;;;;;;;;;;4952531;28;20647;-81
2022/01/28 14:30:01;;;;;;;49.57;33.27;;;;;;;;;;4953535;28;20273;-81
2022/01/28 14:32:27;;;;;;;52.80;34.60;;;;;;;;;;4968565;28;20268;-81
2022/01/28 14:34:55;;;;;;;57.67;36.07;;;;;;;;;;4952999;28;20183;-81
2022/01/28 14:37:22;;;;;;;56.27;35.40;;;;;;;;;;4952296;28;20174;-80
2022/01/28 14:39:48;;;;;;;56.93;37.17;;;;;;;;;;4950662;28;20270;-81
2022/01/28 14:42:15;;;;;;;55.83;35.47;;;;;;;;;;4952913;28;20317;-81
2022/01/28 14:45:04;;;;;;;56.67;36.20;;;;;;;;;;4970532;28;20179;-81
2022/01/28 14:47:30;;;;;;;53.50;34.97;;;;;;;;;;4950188;28;20210;-81
2022/01/28 14:49:56;;;;;;;51.67;35.23;;;;;;;;;;4951154;28;20183;-81
2022/01/28 14:52:28;;;;;;;57.17;36.23;;;;;;;;;;4955053;28;20236;-81
2022/01/28 14:54:55;;;;;;;56.50;36.77;;;;;;;;;;4954343;28;20175;-81
2022/01/28 14:57:22;;;;;;;54.47;36.37;;;;;;;;;;4953596;28;20182;-80
2022/01/28 14:59:49;;;;;;;59.00;37.23;;;;;;;;;;4950964;28;20190;-81
2022/01/28 15:02:23;;;;;;;58.83;35.83;;;;;;;;;;4953752;28;20215;-81
2022/01/28 15:04:50;;;;;;;59.53;37.17;;;;;;;;;;4951425;28;20488;-80
2022/01/28 15:07:17;;;;;;;57.23;37.20;;;;;;;;;;4949145;28;20430;-82
2022/01/28 15:09:44;;;;;;;57.47;36.27;;;;;;;;;;4965993;28;20192;-81
2022/01/28 15:12:11;;;;;;;61.13;37.47;;;;;;;;;;4969538;28;20426;-80
2022/01/28 15:14:37;;;;;;;57.33;36.60;;;;;;;;;;4955135;28;20520;-81
2022/01/28 15:17:04;;;;;;;55.93;35.43;;;;;;;;;;4968921;28;20418;-81
2022/01/28 15:19:30;;;;;;;55.03;35.97;;;;;;;;;;4951491;28;20433;-80
2022/01/28 15:21:56;;;;;;;58.53;36.27;;;;;;;;;;4951486;28;20175;-81
2022/01/28 15:24:27;;;;;;;55.30;35.07;;;;;;;;;;4949490;28;20465;-81
2022/01/28 15:26:54;;;;;;;60.17;36.77;;;;;;;;;;4951817;28;20831;-81
2022/01/28 15:30:07;;;;;;;62.77;37.73;;;;;;;;;;4954278;28;20476;-81
2022/01/28 15:37:21;;;;;;;63.30;37.07;;;;;;;;;;4951540;28;21102;-80
2022/01/28 15:39:47;;;;;;;64.70;38.20;;;;;;;;;;4969134;28;20430;-80
2022/01/28 15:42:13;;;;;;;59.70;36.70;;;;;;;;;;4949924;28;20418;-80
2022/01/28 15:44:40;;;;;;;67.17;40.23;;;;;;;;;;4949010;28;20476;-79
2022/01/28 15:47:07;;;;;;;67.07;39.17;;;;;;;;;;4950564;28;20434;-80
2022/01/28 15:49:33;;;;;;;64.00;37.77;;;;;;;;;;4948634;28;20435;-79
2022/01/28 15:52:00;;;;;;;71.90;41.03;;;;;;;;;;4952315;28;20450;-79